Time;durP1;ratioP1;P1;durP2;ratioP2;P2;SDS_P1;SDS_P2;PMS_P1;PMS_P2;Temp;Humidity;BMP_temperature;BMP_pressure;BME280_temperature;BME280_humidity;BME280_pressure;Samples;Min_cycle;Max_cycle;Signal;HPM_P1;HPM_P2
2024/04/23 00:00:42;;;;;;;;;;;;;;;7.94;100.00;100249.34;5530847;25;20416;-68
2024/04/23 00:03:08;;;;;;;;;;;;;;;8.01;100.00;100258.31;5531175;25;19927;-71
2024/04/23 00:05:33;;;;;;;;;;;;;;;8.05;100.00;100261.50;5501008;25;19934;-68
2024/04/23 00:07:58;;;;;;;;;;;;;;;8.11;100.00;100247.63;5564299;25;19927;-67
2024/04/23 00:10:23;;;;;;;;;;;;;;;8.16;100.00;100255.94;5532073;25;19931;-68
2024/04/23 00:12:49;;;;;;;;;;;;;;;8.20;100.00;100253.78;5563310;25;19927;-69
2024/04/23 00:15:14;;;;;;;;;;;;;;;8.22;100.00;100252.63;5563889;25;19927;-67
2024/04/23 00:17:39;;;;;;;;;;;;;;;8.25;100.00;100254.97;5564076;25;19934;-69
2024/04/23 00:20:06;;;;;;;;;;;;;;;8.27;100.00;100260.94;5565217;25;20002;-69
2024/04/23 00:22:31;;;;;;;;;;;;;;;8.30;100.00;100255.31;5563693;25;19941;-68
2024/04/23 00:24:58;;;;;;;;;;;;;;;8.33;100.00;100252.38;5563310;25;19927;-67
2024/04/23 00:27:23;;;;;;;;;;;;;;;8.35;100.00;100260.16;5563550;25;20337;-68
2024/04/23 00:29:48;;;;;;;;;;;;;;;8.36;100.00;100260.00;5563747;25;20359;-67
2024/04/23 00:32:14;;;;;;;;;;;;;;;8.37;100.00;100256.34;5563276;25;19927;-67
2024/04/23 00:34:39;;;;;;;;;;;;;;;8.38;100.00;100250.09;5564809;25;19927;-65
2024/04/23 00:37:05;;;;;;;;;;;;;;;8.40;100.00;100257.88;5573896;25;19934;-67
2024/04/23 00:39:54;;;;;;;;;;;;;;;8.41;100.00;100245.44;5576034;25;20073;-66
2024/04/23 00:42:19;;;;;;;;;;;;;;;8.42;100.00;100255.91;5572619;25;19934;-67
2024/04/23 00:44:45;;;;;;;;;;;;;;;8.42;100.00;100252.41;5563141;25;19927;-67
2024/04/23 00:47:10;;;;;;;;;;;;;;;8.43;100.00;100251.41;5562629;25;19926;-67
2024/04/23 00:49:35;;;;;;;;;;;;;;;8.45;100.00;100249.44;5529853;25;19935;-68
2024/04/23 00:52:01;;;;;;;;;;;;;;;8.44;100.00;100250.44;5565480;25;19927;-70
2024/04/23 00:54:26;;;;;;;;;;;;;;;8.44;100.00;100248.59;5563048;25;19930;-67
2024/04/23 00:56:56;;;;;;;;;;;;;;;8.44;100.00;100251.25;5529535;25;19972;-69
2024/04/23 00:59:22;;;;;;;;;;;;;;;8.45;100.00;100254.75;5562530;25;19937;-67
2024/04/23 01:01:49;;;;;;;;;;;;;;;8.45;100.00;100247.59;5562779;25;19927;-66
2024/04/23 01:04:15;;;;;;;;;;;;;;;8.46;100.00;100259.06;5562707;25;19933;-68
2024/04/23 01:06:40;;;;;;;;;;;;;;;8.44;100.00;100261.03;5563151;25;19927;-68
2024/04/23 01:09:05;;;;;;;;;;;;;;;8.41;100.00;100253.41;5562909;25;19931;-67
2024/04/23 01:11:31;;;;;;;;;;;;;;;8.43;100.00;100259.38;5562054;25;19938;-67
2024/04/23 01:13:56;;;;;;;;;;;;;;;8.42;100.00;100247.94;5529603;25;19927;-70
2024/04/23 01:16:26;;;;;;;;;;;;;;;8.43;100.00;100259.38;5562496;25;19934;-69
2024/04/23 01:18:52;;;;;;;;;;;;;;;8.44;100.00;100259.22;5562827;25;19974;-67
2024/04/23 01:21:22;;;;;;;;;;;;;;;8.44;100.00;100261.88;5529323;25;19934;-68
2024/04/23 01:23:49;;;;;;;;;;;;;;;8.43;100.00;100259.38;5563208;25;19934;-66
2024/04/23 01:26:16;;;;;;;;;;;;;;;8.40;100.00;100263.19;5561428;25;19939;-67
2024/04/23 01:28:42;;;;;;;;;;;;;;;8.38;100.00;100273.97;5562501;25;19926;-68
2024/04/23 01:31:08;;;;;;;;;;;;;;;8.36;100.00;100275.91;5560305;25;20549;-70
2024/04/23 01:33:35;;;;;;;;;;;;;;;8.32;100.00;100282.50;5583040;25;19926;-70
2024/04/23 01:36:06;;;;;;;;;;;;;;;8.33;100.00;100278.03;5530992;25;19935;-69
2024/04/23 01:38:32;;;;;;;;;;;;;;;8.30;100.00;100286.31;5531457;25;20260;-68
2024/04/23 01:40:58;;;;;;;;;;;;;;;8.23;100.00;100291.44;5563685;25;19927;-66
2024/04/23 01:43:24;;;;;;;;;;;;;;;8.20;100.00;100297.06;5563928;25;19994;-68
2024/04/23 01:45:50;;;;;;;;;;;;;;;8.16;100.00;100295.72;5562320;25;19931;-66
2024/04/23 01:48:16;;;;;;;;;;;;;;;8.08;100.00;100299.13;5561817;25;19927;-65
2024/04/23 01:50:41;;;;;;;;;;;;;;;8.06;100.00;100301.13;5561794;25;19935;-69
2024/04/23 01:53:06;;;;;;;;;;;;;;;8.00;100.00;100303.56;5529057;25;19927;-68
2024/04/23 01:55:32;;;;;;;;;;;;;;;7.94;100.00;100314.81;5563695;25;19941;-66
2024/04/23 01:57:57;;;;;;;;;;;;;;;7.88;100.00;100312.78;5528934;25;19927;-68
2024/04/23 02:00:23;;;;;;;;;;;;;;;7.82;100.00;100330.16;5561782;25;19927;-66
2024/04/23 02:02:49;;;;;;;;;;;;;;;7.74;100.00;100316.81;5561720;25;20370;-66
2024/04/23 02:05:15;;;;;;;;;;;;;;;7.73;100.00;100321.28;5561501;25;19963;-67
2024/04/23 02:07:41;;;;;;;;;;;;;;;7.67;100.00;100327.22;5528599;25;19934;-68
2024/04/23 02:10:06;;;;;;;;;;;;;;;7.67;100.00;100327.22;5530362;25;19938;-68
2024/04/23 02:12:32;;;;;;;;;;;;;;;7.62;100.00;100329.50;5562440;25;19927;-66
2024/04/23 02:14:57;;;;;;;;;;;;;;;7.56;100.00;100329.28;5561718;25;19931;-68
2024/04/23 02:17:22;;;;;;;;;;;;;;;7.46;100.00;100337.31;5528698;25;19990;-68
2024/04/23 02:20:10;;;;;;;;;;;;;;;7.40;100.00;100330.81;5535886;25;19955;-69
2024/04/23 02:22:36;;;;;;;;;;;;;;;7.28;100.00;100341.81;5529469;25;19938;-68
2024/04/23 02:25:01;;;;;;;;;;;;;;;7.26;100.00;100339.31;5564580;25;20139;-69
2024/04/23 02:27:28;;;;;;;;;;;;;;;7.23;100.00;100339.63;5564010;25;20274;-68
2024/04/23 02:29:53;;;;;;;;;;;;;;;7.26;100.00;100346.41;5529061;25;19935;-66
2024/04/23 02:32:19;;;;;;;;;;;;;;;7.27;100.00;100345.44;5528019;25;19930;-68
2024/04/23 02:34:44;;;;;;;;;;;;;;;7.27;100.00;100342.78;5560998;25;19934;-68
2024/04/23 02:37:09;;;;;;;;;;;;;;;7.26;100.00;100347.25;5561775;25;20319;-68
2024/04/23 02:39:35;;;;;;;;;;;;;;;7.25;100.00;100350.06;5565138;25;19934;-68
2024/04/23 02:42:00;;;;;;;;;;;;;;;7.14;100.00;100359.88;5566121;25;19927;-66
2024/04/23 02:44:25;;;;;;;;;;;;;;;7.08;100.00;100347.22;5565249;25;19926;-68
2024/04/23 02:46:51;;;;;;;;;;;;;;;7.07;100.00;100360.63;5564896;25;19927;-67
2024/04/23 02:49:16;;;;;;;;;;;;;;;7.08;100.00;100357.81;5564628;25;19926;-66
2024/04/23 02:51:47;;;;;;;;;;;;;;;7.04;100.00;100366.22;5564423;25;19931;-67
2024/04/23 02:54:13;;;;;;;;;;;;;;;7.01;100.00;100364.72;5564615;25;19931;-66
2024/04/23 02:56:38;;;;;;;;;;;;;;;6.95;100.00;100367.97;5566198;25;19937;-67
2024/04/23 02:59:03;;;;;;;;;;;;;;;6.93;100.00;100375.19;5565888;25;20013;-66
2024/04/23 03:01:28;;;;;;;;;;;;;;;6.95;100.00;100369.78;5564457;25;20370;-68
2024/04/23 03:03:56;;;;;;;;;;;;;;;6.97;100.00;100378.41;5564413;25;19927;-69
2024/04/23 03:06:22;;;;;;;;;;;;;;;6.96;100.00;100374.91;5564727;25;19927;-67
2024/04/23 03:08:49;;;;;;;;;;;;;;;6.90;100.00;100375.47;5531514;25;20274;-68
2024/04/23 03:11:14;;;;;;;;;;;;;;;6.84;100.00;100381.38;5564247;25;20385;-64
2024/04/23 03:13:40;;;;;;;;;;;;;;;6.87;100.00;100394.31;5566720;25;19934;-68
2024/04/23 03:16:05;;;;;;;;;;;;;;;6.92;100.00;100394.69;5565117;25;19934;-67
2024/04/23 03:18:31;;;;;;;;;;;;;;;6.94;100.00;100399.84;5531363;25;19934;-66
2024/04/23 03:20:56;;;;;;;;;;;;;;;6.93;100.00;100406.94;5531418;25;19927;-68
2024/04/23 03:23:21;;;;;;;;;;;;;;;6.82;100.00;100400.06;5500410;25;19938;-66
2024/04/23 03:25:46;;;;;;;;;;;;;;;6.80;100.00;100407.31;5564455;25;19934;-68
2024/04/23 03:28:12;;;;;;;;;;;;;;;6.72;100.00;100406.38;5566835;25;19927;-68
2024/04/23 03:30:37;;;;;;;;;;;;;;;6.65;100.00;100413.22;5560626;25;19926;-68
2024/04/23 03:33:03;;;;;;;;;;;;;;;6.62;100.00;100418.81;5528761;25;19927;-67
2024/04/23 03:35:28;;;;;;;;;;;;;;;6.58;100.00;100420.06;5494005;26;19927;-66
2024/04/23 03:37:54;;;;;;;;;;;;;;;6.49;100.00;100433.22;5526484;26;19993;-68
2024/04/23 03:40:19;;;;;;;;;;;;;;;6.46;100.00;100430.84;5526861;26;19949;-69
2024/04/23 03:42:44;;;;;;;;;;;;;;;6.46;100.00;100445.88;5526752;26;19934;-67
2024/04/23 03:45:10;;;;;;;;;;;;;;;6.43;100.00;100441.72;5529046;26;19931;-68
2024/04/23 03:47:35;;;;;;;;;;;;;;;6.40;100.00;100451.75;5526808;26;20010;-65
2024/04/23 03:50:00;;;;;;;;;;;;;;;6.40;100.00;100463.19;5493098;26;19927;-70
2024/04/23 03:52:26;;;;;;;;;;;;;;;6.34;100.00;100460.25;5526447;26;19942;-70
2024/04/23 03:54:52;;;;;;;;;;;;;;;6.35;100.00;100465.38;5526854;26;19927;-69
2024/04/23 03:57:17;;;;;;;;;;;;;;;6.24;100.00;100478.78;5526824;26;20426;-70
2024/04/23 03:59:42;;;;;;;;;;;;;;;6.12;100.00;100475.47;5495158;26;19927;-66
2024/04/23 04:07:35;;;;;;;;;;;;;;;5.87;100.00;100490.06;5526770;26;19939;-68
2024/04/23 04:10:00;;;;;;;;;;;;;;;5.87;100.00;100500.63;5526067;26;19931;-69
2024/04/23 04:12:26;;;;;;;;;;;;;;;5.92;100.00;100499.41;5494355;26;19944;-69
2024/04/23 04:14:51;;;;;;;;;;;;;;;5.93;100.00;100495.78;5528610;26;19939;-67
2024/04/23 04:17:16;;;;;;;;;;;;;;;5.80;100.00;100506.59;5527412;26;19927;-68
2024/04/23 04:19:42;;;;;;;;;;;;;;;5.70;100.00;100517.16;5525944;26;19994;-67
2024/04/23 04:22:07;;;;;;;;;;;;;;;5.56;100.00;100525.47;5526086;26;19938;-69
2024/04/23 04:24:32;;;;;;;;;;;;;;;5.52;100.00;100518.81;5524364;26;19928;-66
2024/04/23 04:26:58;;;;;;;;;;;;;;;5.46;100.00;100524.59;5524506;26;20309;-68
2024/04/23 04:29:23;;;;;;;;;;;;;;;5.40;100.00;100530.44;5524272;26;19934;-68
2024/04/23 04:31:48;;;;;;;;;;;;;;;5.39;100.00;100540.16;5494086;26;19927;-69
2024/04/23 04:34:14;;;;;;;;;;;;;;;5.38;100.00;100540.31;5524516;26;19934;-70
2024/04/23 04:36:39;;;;;;;;;;;;;;;5.41;100.00;100550.59;5492164;26;19931;-68
2024/04/23 04:39:04;;;;;;;;;;;;;;;5.41;100.00;100556.72;5491861;26;19995;-69
2024/04/23 04:41:30;;;;;;;;;;;;;;;5.39;100.00;100552.53;5461403;26;19960;-72
2024/04/23 04:43:55;;;;;;;;;;;;;;;5.39;100.00;100552.53;5491662;26;19934;-74
2024/04/23 04:46:20;;;;;;;;;;;;;;;5.36;100.00;100560.72;5493009;26;19934;-72
2024/04/23 04:48:46;;;;;;;;;;;;;;;5.40;100.00;100567.41;5496201;26;19927;-71
2024/04/23 04:51:13;;;;;;;;;;;;;;;5.51;100.00;100575.25;5524369;26;19928;-71
2024/04/23 04:53:38;;;;;;;;;;;;;;;5.52;100.00;100582.19;5524621;26;19931;-67
2024/04/23 04:56:03;;;;;;;;;;;;;;;5.51;100.00;100586.66;5495740;26;19973;-67
2024/04/23 04:58:29;;;;;;;;;;;;;;;5.47;100.00;100574.66;5525448;26;19934;-70
2024/04/23 05:00:54;;;;;;;;;;;;;;;5.47;100.00;100589.66;5523825;26;19928;-70
2024/04/23 05:03:20;;;;;;;;;;;;;;;5.40;100.00;100585.91;5494626;26;19939;-72
2024/04/23 05:05:45;;;;;;;;;;;;;;;5.38;100.00;100595.75;5524800;26;19999;-67
2024/04/23 05:08:10;;;;;;;;;;;;;;;5.39;100.00;100605.34;5493240;26;19935;-69
2024/04/23 05:10:36;;;;;;;;;;;;;;;5.35;100.00;100606.59;5494192;25;19953;-74
2024/04/23 05:13:01;;;;;;;;;;;;;;;5.31;100.00;100606.03;5544870;25;19927;-71
2024/04/23 05:15:26;;;;;;;;;;;;;;;5.39;100.00;100613.28;5540502;25;19978;-67
2024/04/23 05:17:52;;;;;;;;;;;;;;;5.39;100.00;100613.28;5511063;25;19938;-70
2024/04/23 05:20:17;;;;;;;;;;;;;;;5.44;100.00;100616.34;5518267;25;19938;-71
2024/04/23 05:22:43;;;;;;;;;;;;;;;5.44;100.00;100619.00;5539563;25;21138;-67
2024/04/23 05:25:08;;;;;;;;;;;;;;;5.48;100.00;100628.31;5507804;25;20283;-68
2024/04/23 05:27:34;;;;;;;;;;;;;;;5.54;100.00;100635.72;5557369;25;19931;-67
2024/04/23 05:29:59;;;;;;;;;;;;;;;5.60;100.00;100645.75;5556967;25;19934;-66
2024/04/23 05:35:09;;;;;;;;;;;;;;;5.57;100.00;100659.25;5511885;26;19939;-66
2024/04/23 05:37:35;;;;;;;;;;;;;;;5.54;100.00;100659.50;5546656;25;20552;-69
2024/04/23 05:40:00;;;;;;;;;;;;;;;5.49;100.00;100666.97;5476772;25;19935;-68
2024/04/23 05:42:25;;;;;;;;;;;;;;;5.43;100.00;100667.50;5544838;25;19935;-69
2024/04/23 05:44:51;;;;;;;;;;;;;;;5.43;100.00;100678.06;5480911;25;19938;-68
2024/04/23 05:47:16;;;;;;;;;;;;;;;5.40;100.00;100673.03;5516696;26;20378;-71
2024/04/23 05:50:00;;;;;;;;;;;;;;;5.35;100.00;100684.00;5522704;25;19940;-69
2024/04/23 05:52:44;;;;;;;;;;;;;;;5.40;100.00;100673.88;5564562;25;20339;-70
2024/04/23 05:55:28;;;;;;;;;;;;;;;5.41;100.00;100686.13;5564379;25;20000;-68
2024/04/23 05:57:54;;;;;;;;;;;;;;;5.43;100.00;100688.63;5563272;25;19927;-70
2024/04/23 06:00:19;;;;;;;;;;;;;;;5.50;100.00;100698.56;5562174;25;19931;-67
2024/04/23 06:02:44;;;;;;;;;;;;;;;5.58;100.00;100693.44;5561921;25;19927;-69
2024/04/23 06:05:09;;;;;;;;;;;;;;;5.63;100.00;100698.31;5528759;25;20374;-69
2024/04/23 06:07:35;;;;;;;;;;;;;;;5.72;100.00;100704.63;5530874;25;19926;-65
2024/04/23 06:10:00;;;;;;;;;;;;;;;5.85;100.00;100703.44;5561279;25;19933;-68
2024/04/23 06:12:25;;;;;;;;;;;;;;;5.86;100.00;100722.78;5529510;25;19927;-67
2024/04/23 06:14:51;;;;;;;;;;;;;;;5.85;100.00;100714.00;5565896;25;19931;-66
2024/04/23 06:17:22;;;;;;;;;;;;;;;5.85;100.00;100713.16;5564840;25;19927;-68
2024/04/23 06:19:50;;;;;;;;;;;;;;;5.88;100.00;100724.31;5565804;25;20267;-70
2024/04/23 06:22:20;;;;;;;;;;;;;;;5.90;100.00;100725.03;5568307;25;19926;-67
2024/04/23 06:24:47;;;;;;;;;;;;;;;5.82;100.00;100730.13;5524572;25;19996;-69
2024/04/23 06:27:13;;;;;;;;;;;;;;;5.90;100.00;100735.63;5547678;25;20350;-68
2024/04/23 06:29:38;;;;;;;;;;;;;;;5.93;100.00;100739.78;5539452;25;19977;-68
2024/04/23 06:32:04;;;;;;;;;;;;;;;5.93;100.00;100738.97;5545644;25;19951;-68
2024/04/23 06:34:30;;;;;;;;;;;;;;;6.10;100.00;100747.09;5540558;25;19994;-67
2024/04/23 06:36:56;;;;;;;;;;;;;;;6.10;100.00;100751.56;5566426;25;19939;-65
2024/04/23 06:39:23;;;;;;;;;;;;;;;6.30;100.00;100747.97;5561836;25;19926;-66
2024/04/23 06:41:49;;;;;;;;;;;;;;;6.38;99.31;100750.81;5526827;25;19996;-69
2024/04/23 06:44:14;;;;;;;;;;;;;;;6.39;98.42;100763.06;5543567;25;19927;-68
2024/04/23 06:46:40;;;;;;;;;;;;;;;6.29;98.33;100761.34;5534624;25;19928;-70
2024/04/23 06:49:05;;;;;;;;;;;;;;;6.35;98.55;100772.22;5544479;25;19995;-69
2024/04/23 06:51:31;;;;;;;;;;;;;;;6.43;98.15;100775.03;5552363;25;19927;-67
2024/04/23 06:53:56;;;;;;;;;;;;;;;6.42;98.29;100783.09;5512222;25;20377;-67
2024/04/23 06:56:21;;;;;;;;;;;;;;;6.33;96.91;100790.03;5546452;25;20354;-69
2024/04/23 06:58:47;;;;;;;;;;;;;;;6.34;96.54;100788.22;5543972;25;19995;-69
2024/04/23 07:01:14;;;;;;;;;;;;;;;6.33;96.22;100789.19;5537422;25;19934;-69
2024/04/23 07:03:39;;;;;;;;;;;;;;;6.37;92.94;100775.59;5540342;25;19928;-69
2024/04/23 07:06:05;;;;;;;;;;;;;;;6.47;91.16;100797.59;5544906;25;20330;-66
2024/04/23 07:08:30;;;;;;;;;;;;;;;6.46;93.72;100801.22;5543225;25;19931;-70
2024/04/23 07:10:56;;;;;;;;;;;;;;;6.47;91.88;100800.25;5484756;25;19946;-76
2024/04/23 07:13:22;;;;;;;;;;;;;;;6.51;91.81;100801.66;5490851;25;19955;-68
2024/04/23 07:15:47;;;;;;;;;;;;;;;6.51;89.66;100811.38;5535419;25;19935;-68
2024/04/23 07:18:12;;;;;;;;;;;;;;;6.62;91.89;100810.44;5531958;25;20461;-67
2024/04/23 07:20:38;;;;;;;;;;;;;;;6.64;91.33;100811.13;5531608;25;19938;-70
2024/04/23 07:23:04;;;;;;;;;;;;;;;6.41;92.75;100814.03;5548362;25;19928;-67
2024/04/23 07:25:29;;;;;;;;;;;;;;;6.43;95.74;100811.25;5548999;25;19939;-65
2024/04/23 07:27:55;;;;;;;;;;;;;;;6.57;95.10;100828.53;5558192;25;20278;-64
2024/04/23 07:30:25;;;;;;;;;;;;;;;6.58;94.13;100830.19;5543302;25;20286;-68
2024/04/23 07:32:54;;;;;;;;;;;;;;;6.39;95.83;100842.41;5554959;25;19955;-69
2024/04/23 07:35:20;;;;;;;;;;;;;;;6.10;98.19;100844.94;5550961;25;19935;-69
2024/04/23 07:37:45;;;;;;;;;;;;;;;6.05;99.46;100841.00;5508411;25;19999;-67
2024/04/23 07:40:10;;;;;;;;;;;;;;;6.04;99.40;100847.25;5552902;25;19946;-68
2024/04/23 07:42:36;;;;;;;;;;;;;;;5.86;100.00;100855.75;5543158;25;19961;-67
2024/04/23 07:45:01;;;;;;;;;;;;;;;5.93;100.00;100861.38;5514755;25;20434;-67
2024/04/23 07:47:27;;;;;;;;;;;;;;;6.08;99.20;100875.97;5496672;25;19928;-68
2024/04/23 07:49:52;;;;;;;;;;;;;;;5.94;96.41;100867.50;5514536;25;20390;-67
2024/04/23 07:52:17;;;;;;;;;;;;;;;6.08;96.27;100864.53;5546924;25;19943;-67
2024/04/23 07:54:43;;;;;;;;;;;;;;;6.04;96.19;100860.47;5535088;25;20719;-65
2024/04/23 07:57:08;;;;;;;;;;;;;;;6.22;95.78;100872.13;5517155;25;19962;-69
2024/04/23 07:59:33;;;;;;;;;;;;;;;6.36;96.55;100873.56;5545859;25;20002;-66
2024/04/23 08:01:59;;;;;;;;;;;;;;;6.66;96.26;100875.38;5507402;25;19995;-69
2024/04/23 08:04:24;;;;;;;;;;;;;;;6.80;92.91;100877.63;5505260;26;20001;-68
2024/04/23 08:06:49;;;;;;;;;;;;;;;6.81;92.71;100880.16;5509737;25;19939;-65
2024/04/23 08:09:14;;;;;;;;;;;;;;;7.02;91.84;100882.72;5512748;26;19996;-67
2024/04/23 08:11:41;;;;;;;;;;;;;;;7.09;89.85;100878.53;5499197;25;19977;-67
2024/04/23 08:14:06;;;;;;;;;;;;;;;7.07;87.75;100880.47;5518559;25;19934;-69
2024/04/23 08:16:32;;;;;;;;;;;;;;;7.13;89.60;100889.69;5499552;26;19931;-66
2024/04/23 08:18:57;;;;;;;;;;;;;;;6.94;90.07;100895.81;5510333;25;19927;-68
2024/04/23 08:21:22;;;;;;;;;;;;;;;6.73;90.06;100887.94;5505017;25;19927;-66
2024/04/23 08:23:49;;;;;;;;;;;;;;;6.46;88.92;100901.75;5535160;25;19928;-69
2024/04/23 08:26:15;;;;;;;;;;;;;;;6.22;89.23;100909.16;5534867;25;19935;-69
2024/04/23 08:28:42;;;;;;;;;;;;;;;6.26;88.32;100913.19;5539950;25;19927;-70
2024/04/23 08:31:08;;;;;;;;;;;;;;;6.33;85.63;100921.44;5513491;26;19983;-69
2024/04/23 08:33:34;;;;;;;;;;;;;;;6.45;85.02;100913.31;5486968;25;20402;-68
2024/04/23 08:36:00;;;;;;;;;;;;;;;6.59;81.21;100921.84;5506373;25;20401;-72
2024/04/23 08:38:27;;;;;;;;;;;;;;;6.62;77.84;100918.94;5537067;25;19928;-69
2024/04/23 08:40:52;;;;;;;;;;;;;;;6.60;77.60;100924.34;5544750;25;19927;-71
2024/04/23 08:43:19;;;;;;;;;;;;;;;6.64;79.32;100935.50;5544494;25;19927;-68
2024/04/23 08:45:45;;;;;;;;;;;;;;;6.87;78.03;100929.06;5544496;25;20027;-69
2024/04/23 08:48:12;;;;;;;;;;;;;;;7.11;77.95;100924.25;5472146;25;20956;-71
2024/04/23 08:50:38;;;;;;;;;;;;;;;7.06;77.07;100921.19;5543749;25;19971;-70
2024/04/23 08:53:05;;;;;;;;;;;;;;;7.32;77.98;100932.09;5544186;25;19995;-71
2024/04/23 08:55:32;;;;;;;;;;;;;;;7.42;77.08;100940.06;5549531;25;19927;-73
2024/04/23 08:57:58;;;;;;;;;;;;;;;7.44;77.52;100940.75;5530487;25;19927;-70
2024/04/23 09:00:23;;;;;;;;;;;;;;;7.19;77.62;100943.91;5550017;25;19994;-68
2024/04/23 09:02:49;;;;;;;;;;;;;;;7.02;78.47;100940.97;5549241;25;19928;-71
2024/04/23 09:05:15;;;;;;;;;;;;;;;7.09;79.79;100947.38;5516844;25;19930;-69
2024/04/23 09:07:41;;;;;;;;;;;;;;;6.91;78.66;100948.16;5542410;25;19927;-69
2024/04/23 09:10:07;;;;;;;;;;;;;;;6.91;79.99;100961.38;5545723;25;19934;-69
2024/04/23 09:12:33;;;;;;;;;;;;;;;7.00;79.88;100958.81;5519268;25;19934;-67
2024/04/23 09:14:59;;;;;;;;;;;;;;;7.19;80.90;100962.47;5532037;25;20565;-70
2024/04/23 09:17:24;;;;;;;;;;;;;;;7.31;78.35;100961.38;5536423;25;19934;-69
2024/04/23 09:19:50;;;;;;;;;;;;;;;7.48;78.85;100958.03;5545246;25;19999;-70
2024/04/23 09:22:16;;;;;;;;;;;;;;;7.43;75.80;100961.13;5537426;25;19931;-71
2024/04/23 09:24:41;;;;;;;;;;;;;;;7.36;75.10;100970.59;5555353;25;20279;-71
2024/04/23 09:27:07;;;;;;;;;;;;;;;7.30;75.95;100972.97;5543088;25;19942;-71
2024/04/23 09:29:32;;;;;;;;;;;;;;;7.29;77.23;100982.72;5533807;25;19947;-69
2024/04/23 09:31:59;;;;;;;;;;;;;;;7.13;76.06;100980.56;5512695;25;19935;-71
2024/04/23 09:34:29;;;;;;;;;;;;;;;6.77;78.37;100989.09;5542789;25;19931;-71
2024/04/23 09:36:57;;;;;;;;;;;;;;;6.55;80.67;100989.25;5533997;25;19927;-67
2024/04/23 09:39:24;;;;;;;;;;;;;;;6.45;84.00;101011.19;5548888;25;20008;-76
2024/04/23 09:41:54;;;;;;;;;;;;;;;6.35;87.23;101017.38;5509430;26;20394;-70
2024/04/23 09:44:20;;;;;;;;;;;;;;;6.31;90.35;101014.16;5540798;25;20317;-67
2024/04/23 09:46:45;;;;;;;;;;;;;;;6.27;90.82;101014.53;5540368;25;19938;-69
2024/04/23 09:49:11;;;;;;;;;;;;;;;6.32;91.77;101015.00;5476380;26;19935;-70
2024/04/23 09:51:36;;;;;;;;;;;;;;;6.45;92.90;101013.84;5531352;25;19935;-68
2024/04/23 09:54:04;;;;;;;;;;;;;;;6.84;91.30;101016.69;5532596;25;20275;-69
2024/04/23 09:56:30;;;;;;;;;;;;;;;7.14;90.57;101024.63;5527304;25;19939;-71
2024/04/23 09:58:55;;;;;;;;;;;;;;;7.40;89.11;101011.72;5502359;25;20031;-68
2024/04/23 10:01:21;;;;;;;;;;;;;;;7.66;86.64;101020.03;5532401;25;20371;-67
2024/04/23 10:03:53;;;;;;;;;;;;;;;7.61;84.78;101040.81;5535475;25;19935;-68
2024/04/23 10:06:21;;;;;;;;;;;;;;;7.35;83.63;101035.16;5547610;25;19939;-67
2024/04/23 10:08:53;;;;;;;;;;;;;;;7.12;84.64;101047.75;5499877;25;19928;-68
2024/04/23 10:11:32;;;;;;;;;;;;;;;6.94;87.12;101044.06;5542216;25;20293;-69
2024/04/23 10:14:11;;;;;;;;;;;;;;;6.94;86.02;101045.84;5537356;25;20560;-69
2024/04/23 10:16:44;;;;;;;;;;;;;;;7.24;86.23;101047.69;5537567;25;19964;-66
2024/04/23 10:19:11;;;;;;;;;;;;;;;7.54;85.18;101046.78;5511173;25;19943;-68
2024/04/23 10:21:39;;;;;;;;;;;;;;;7.57;80.70;101052.66;5540308;25;19995;-65
2024/04/23 10:24:09;;;;;;;;;;;;;;;7.43;78.53;101055.66;5538501;25;19927;-69
2024/04/23 10:26:37;;;;;;;;;;;;;;;7.40;79.03;101055.94;5534489;25;19931;-66
2024/04/23 10:29:02;;;;;;;;;;;;;;;7.33;78.94;101054.81;5537086;25;19934;-66
2024/04/23 10:31:28;;;;;;;;;;;;;;;7.29;78.56;101056.06;5512857;25;19943;-68
2024/04/23 10:33:53;;;;;;;;;;;;;;;7.27;79.87;101066.78;5547186;25;19934;-67
2024/04/23 10:36:20;;;;;;;;;;;;;;;7.48;79.85;101069.34;5507060;25;19931;-70
2024/04/23 10:38:46;;;;;;;;;;;;;;;7.82;78.14;101074.34;5534090;25;19935;-71
2024/04/23 10:41:13;;;;;;;;;;;;;;;7.64;75.88;101080.28;5546796;25;19931;-70
2024/04/23 10:43:39;;;;;;;;;;;;;;;7.56;77.90;101080.13;5537706;25;20302;-69
2024/04/23 10:46:05;;;;;;;;;;;;;;;7.45;78.49;101080.22;5537052;25;19927;-67
2024/04/23 10:48:35;;;;;;;;;;;;;;;7.34;79.20;101080.34;5533201;25;20012;-69
2024/04/23 10:51:02;;;;;;;;;;;;;;;7.21;79.86;101071.75;5546122;25;19927;-69
2024/04/23 10:53:31;;;;;;;;;;;;;;;7.29;81.34;101079.91;5532820;25;19928;-69
2024/04/23 10:55:56;;;;;;;;;;;;;;;7.34;78.80;101093.59;5506711;25;19963;-71
2024/04/23 10:58:24;;;;;;;;;;;;;;;7.52;79.94;101096.41;5535072;25;19927;-69
2024/04/23 11:00:58;;;;;;;;;;;;;;;7.45;77.66;101104.06;5541723;25;19938;-69
2024/04/23 11:03:30;;;;;;;;;;;;;;;7.37;78.93;101103.91;5508267;26;19936;-70
2024/04/23 11:05:55;;;;;;;;;;;;;;;7.52;78.96;101109.66;5544791;25;20053;-69
2024/04/23 11:08:22;;;;;;;;;;;;;;;7.67;77.84;101111.81;5507870;25;19932;-69
2024/04/23 11:10:51;;;;;;;;;;;;;;;7.78;76.71;101114.34;5536837;25;19998;-68
2024/04/23 11:13:27;;;;;;;;;;;;;;;7.62;75.05;101118.50;5545880;25;19928;-70
2024/04/23 11:15:54;;;;;;;;;;;;;;;7.09;75.22;101087.75;5542436;25;20031;-70
2024/04/23 11:18:20;;;;;;;;;;;;;;;6.95;76.91;101125.19;5542706;25;19931;-66
2024/04/23 11:20:46;;;;;;;;;;;;;;;6.81;78.54;101122.84;5535422;25;20250;-69
2024/04/23 11:23:13;;;;;;;;;;;;;;;6.70;75.77;101118.47;5514225;25;19927;-69
2024/04/23 11:25:38;;;;;;;;;;;;;;;6.91;76.30;101134.31;5513022;25;20393;-68
2024/04/23 11:28:04;;;;;;;;;;;;;;;7.16;76.28;101130.44;5498625;25;19927;-69
2024/04/23 11:30:29;;;;;;;;;;;;;;;7.44;76.07;101134.19;5498328;25;19928;-68
2024/04/23 11:32:56;;;;;;;;;;;;;;;7.42;74.49;101131.69;5507563;25;19937;-70
2024/04/23 11:35:24;;;;;;;;;;;;;;;7.42;73.89;101144.09;5507368;25;20289;-72
2024/04/23 11:37:54;;;;;;;;;;;;;;;7.45;74.74;101149.13;5546269;25;19931;-68
2024/04/23 11:40:20;;;;;;;;;;;;;;;7.52;73.10;101145.00;5541707;25;19996;-68
2024/04/23 11:42:46;;;;;;;;;;;;;;;7.58;73.80;101152.41;5518253;25;19935;-74
2024/04/23 11:45:11;;;;;;;;;;;;;;;7.48;72.77;101154.16;5549987;25;20415;-73
2024/04/23 11:47:36;;;;;;;;;;;;;;;7.35;73.96;101143.78;5482252;25;19927;-71
2024/04/23 11:50:04;;;;;;;;;;;;;;;7.48;75.07;101148.84;5511101;25;19927;-72
2024/04/23 11:52:33;;;;;;;;;;;;;;;7.61;72.09;101146.00;5521972;25;19927;-72
2024/04/23 11:54:59;;;;;;;;;;;;;;;7.62;73.61;101152.97;5562373;25;20370;-75
2024/04/23 11:57:25;;;;;;;;;;;;;;;7.44;76.44;101150.94;5544726;25;19935;-69
2024/04/23 11:59:50;;;;;;;;;;;;;;;6.87;80.70;101156.75;5542717;25;19938;-73
2024/04/23 12:02:16;;;;;;;;;;;;;;;6.77;85.39;101156.69;5539427;25;19994;-67
2024/04/23 12:04:42;;;;;;;;;;;;;;;6.89;89.13;101154.81;5544475;25;19939;-73
2024/04/23 12:07:09;;;;;;;;;;;;;;;7.09;89.55;101156.63;5538079;25;19937;-71
2024/04/23 12:09:35;;;;;;;;;;;;;;;7.24;86.56;101145.69;5516666;25;19939;-70
2024/04/23 12:12:00;;;;;;;;;;;;;;;7.46;85.23;101150.78;5514514;25;19935;-71
2024/04/23 12:14:28;;;;;;;;;;;;;;;7.57;84.83;101149.88;5563652;25;19934;-71
2024/04/23 12:16:53;;;;;;;;;;;;;;;7.76;84.11;101153.41;5505115;25;19927;-73
2024/04/23 12:19:19;;;;;;;;;;;;;;;7.89;77.69;101147.91;5536266;25;19934;-69
2024/04/23 12:21:45;;;;;;;;;;;;;;;7.57;74.52;101157.84;5534466;25;20008;-72
2024/04/23 12:24:14;;;;;;;;;;;;;;;7.54;75.73;101158.94;5544327;25;19933;-73
2024/04/23 12:26:40;;;;;;;;;;;;;;;7.53;74.82;101151.97;5509148;25;20310;-70
2024/04/23 12:29:06;;;;;;;;;;;;;;;7.58;75.61;101159.50;5519737;25;19937;-72
2024/04/23 12:31:31;;;;;;;;;;;;;;;7.62;75.78;101171.53;5549224;25;19938;-70
2024/04/23 12:33:57;;;;;;;;;;;;;;;7.50;73.79;101157.50;5547539;25;19934;-69
2024/04/23 12:36:22;;;;;;;;;;;;;;;7.36;73.24;101155.22;5542689;25;19971;-70
2024/04/23 12:38:48;;;;;;;;;;;;;;;7.40;72.36;101161.94;5538597;25;19955;-67
2024/04/23 12:41:17;;;;;;;;;;;;;;;7.38;71.88;101174.47;5507151;25;19996;-74
2024/04/23 12:43:46;;;;;;;;;;;;;;;7.30;71.89;101158.41;5506663;25;19934;-69